Latest Coastal Weather Observations for Sydney Harbour

IDN60701

Issued at 9:25 am EST Thursday 31 July 2014 (issued every 10 minutes, with the page automatically refreshed every 10 minutes)

About coastal observations | Map of coastal stations | Coastal observations for NSW | Marine services | Other Formats
Station Details ID: 066196 Name: WEDDING CAKE WEST Lat: -33.84 Lon: 151.26 Height: 6.0 m
Data from the previous 72 hours. | See also: Recent months for locations in New South Wales
Date/Time
EST
Temp

°C
Wind Pressure Rain
since 9am
mm
Weather Cloud Vis
km
Sea
Height
m
Swell
Dir
 
Speed
knots
Gust
knots
hPa Trend Height
m
Period
s
Dir
31/09:00am 17.9 N 11 16 - - - - - - - - - -
31/08:30am 17.1 N 11 16 - - - - - - - - - -
31/08:00am 15.6 N 10 11 - - - - - - - - - -
31/07:30am 15.2 N 12 13 - - - - - - - - - -
31/07:00am 15.5 N 10 11 - - - - - - - - - -
31/06:30am 15.6 N 10 11 - - - - - - - - - -
31/06:00am 15.8 N 8 13 - - - - - - - - - -
31/05:30am 16.0 N 8 10 - - - - - - - - - -
31/05:00am 16.0 N 8 11 - - - - - - - - - -
31/04:30am 16.2 N 7 9 - - - - - - - - - -
31/04:00am 16.1 N 8 10 - - - - - - - - - -
31/03:30am 16.2 N 7 10 - - - - - - - - - -
31/03:00am 16.5 NNW 11 14 - - - - - - - - - -
31/02:30am 16.6 NNW 11 15 - - - - - - - - - -
31/02:00am 16.8 NNW 11 17 - - - - - - - - - -
31/01:30am 16.6 NNW 9 13 - - - - - - - - - -
31/01:00am 16.7 NNW 10 14 - - - - - - - - - -
31/12:30am 17.0 NNW 11 15 - - - - - - - - - -
31/12:00am 16.9 NNW 10 14 - - - - - - - - - -
 
Date/Time
EST
Temp

°C
Wind Pressure Rain
since 9am
mm
Weather Cloud Vis
km
Sea
Height
m
Swell
Dir
 
Speed
knots
Gust
knots
hPa Trend Height
m
Period
s
Dir
30/11:30pm 16.7 NNW 9 14 - - - - - - - - - -
30/11:00pm 16.9 N 8 11 - - - - - - - - - -
30/10:30pm 17.2 NNW 9 12 - - - - - - - - - -
30/10:00pm 17.7 NNW 8 11 - - - - - - - - - -
30/09:30pm 17.3 N 7 8 - - - - - - - - - -
30/09:00pm 17.8 N 7 8 - - - - - - - - - -
30/08:30pm 18.8 NW 9 12 - - - - - - - - - -
30/08:00pm 19.0 NW 7 9 - - - - - - - - - -
30/07:30pm 19.4 WNW 12 16 - - - - - - - - - -
30/07:00pm 19.8 WNW 12 15 - - - - - - - - - -
30/06:30pm 20.1 W 13 16 - - - - - - - - - -
30/06:00pm 20.4 W 15 21 - - - - - - - - - -
30/05:30pm 20.6 W 15 20 - - - - - - - - - -
30/05:00pm 20.7 WNW 14 20 - - - - - - - - - -
30/04:30pm 21.6 WNW 14 19 - - - - - - - - - -
30/04:00pm 22.0 WNW 12 19 - - - - - - - - - -
30/03:30pm 22.3 WNW 13 19 - - - - - - - - - -
30/03:00pm 22.2 WNW 12 18 - - - - - - - - - -
30/02:30pm 22.1 NW 14 22 - - - - - - - - - -
30/02:00pm 22.1 W 14 17 - - - - - - - - - -
30/01:30pm 22.2 WNW 14 21 - - - - - - - - - -
30/01:00pm 21.9 W 9 17 - - - - - - - - - -
30/12:30pm 21.0 W 9 14 - - - - - - - - - -
30/12:00pm 19.8 WSW 9 13 - - - - - - - - - -
30/11:30am 19.7 SW 10 14 - - - - - - - - - -
30/11:00am 19.7 WSW 12 18 - - - - - - - - - -
30/10:30am 19.5 W 11 16 - - - - - - - - - -
30/10:00am 19.0 WNW 12 18 - - - - - - - - - -
30/09:30am 18.4 NNW 7 11 - - - - - - - - - -
30/09:00am 17.8 NW 9 13 - - - - - - - - - -
30/08:30am 17.1 NW 11 21 - - - - - - - - - -
30/08:00am 16.5 NW 12 16 - - - - - - - - - -
30/07:30am 15.9 WNW 13 18 - - - - - - - - - -
30/07:00am 15.6 N 6 10 - - - - - - - - - -
30/06:30am 16.2 NNW 9 11 - - - - - - - - - -
30/06:00am 16.3 NNW 3 5 - - - - - - - - - -
30/05:30am 16.0 NW 6 9 - - - - - - - - - -
30/05:00am 15.7 S 4 6 - - - - - - - - - -
30/04:30am 16.0 NNW 8 14 - - - - - - - - - -
30/04:00am 15.7 NNW 12 17 - - - - - - - - - -
30/03:30am 15.6 NNW 13 17 - - - - - - - - - -
30/03:00am 15.7 NNW 13 16 - - - - - - - - - -
30/02:30am 16.0 NNW 13 17 - - - - - - - - - -
30/02:00am 16.3 NNW 13 15 - - - - - - - - - -
30/01:30am 16.5 N 12 17 - - - - - - - - - -
30/01:00am 16.7 N 12 14 - - - - - - - - - -
30/12:30am 16.9 N 12 15 - - - - - - - - - -
30/12:00am 17.3 N 12 17 - - - - - - - - - -
 
Date/Time
EST
Temp

°C
Wind Pressure Rain
since 9am
mm
Weather Cloud Vis
km
Sea
Height
m
Swell
Dir
 
Speed
knots
Gust
knots
hPa Trend Height
m
Period
s
Dir
29/11:30pm 17.3 N 12 17 - - - - - - - - - -
29/11:00pm 17.5 N 13 18 - - - - - - - - - -
29/10:30pm 17.6 N 12 16 - - - - - - - - - -
29/10:00pm 17.5 N 10 14 - - - - - - - - - -
29/09:30pm 17.4 N 7 9 - - - - - - - - - -
29/09:00pm 17.5 N 6 8 - - - - - - - - - -
29/08:30pm 18.3 NNW 10 13 - - - - - - - - - -
29/08:00pm 18.7 NW 9 13 - - - - - - - - - -
29/07:30pm 19.1 NNW 8 11 - - - - - - - - - -
29/07:00pm 19.4 NW 7 10 - - - - - - - - - -
29/06:30pm 19.9 NW 6 12 - - - - - - - - - -
29/06:00pm 20.4 NW 8 13 - - - - - - - - - -
29/05:30pm 20.9 NW 6 11 - - - - - - - - - -
29/05:00pm 21.3 NW 7 14 - - - - - - - - - -
29/04:30pm 22.2 NW 8 11 - - - - - - - - - -
29/04:00pm 22.4 WNW 12 18 - - - - - - - - - -
29/03:30pm 20.8 N 13 19 - - - - - - - - - -
29/03:00pm 20.4 N 14 17 - - - - - - - - - -
29/02:30pm 20.5 N 15 20 - - - - - - - - - -
29/02:00pm 20.1 N 14 19 - - - - - - - - - -
29/01:30pm 19.8 N 12 18 - - - - - - - - - -
29/01:00pm 19.5 NNW 12 19 - - - - - - - - - -
29/12:30pm 19.1 N 12 20 - - - - - - - - - -
29/12:00pm 18.4 N 13 19 - - - - - - - - - -
29/11:30am 18.0 N 15 24 - - - - - - - - - -
29/11:00am 17.2 NNW 13 19 - - - - - - - - - -
29/10:30am 17.2 NNW 14 22 - - - - - - - - - -
29/10:00am 17.2 N 11 16 - - - - - - - - - -
29/09:30am 16.9 WNW 16 23 - - - - - - - - - -
29/09:00am 15.7 NW 9 16 - - - - - - - - - -
29/08:30am 14.7 N 13 17 - - - - - - - - - -
29/08:00am 14.5 N 13 17 - - - - - - - - - -
29/07:30am 14.5 N 13 16 - - - - - - - - - -
29/07:00am 14.5 NNW 12 18 - - - - - - - - - -
29/06:30am 14.7 NW 12 16 - - - - - - - - - -
29/06:00am 14.9 NW 12 18 - - - - - - - - - -
29/05:30am 14.6 NNW 9 12 - - - - - - - - - -
29/05:00am 15.0 NNW 10 15 - - - - - - - - - -
29/04:30am 14.7 NW 8 17 - - - - - - - - - -
29/04:00am 14.7 NW 12 17 - - - - - - - - - -
29/03:30am 14.6 NW 12 19 - - - - - - - - - -
29/03:00am 14.5 NW 11 16 - - - - - - - - - -
29/02:30am 14.2 NNW 9 12 - - - - - - - - - -
29/02:00am 14.1 NNW 11 17 - - - - - - - - - -
29/01:30am 14.0 N 6 8 - - - - - - - - - -
29/01:00am 14.0 N 10 11 - - - - - - - - - -
29/12:30am 14.3 N 9 12 - - - - - - - - - -
29/12:00am 14.5 N 11 13 - - - - - - - - - -
 
Date/Time
EST
Temp

°C
Wind Pressure Rain
since 9am
mm
Weather Cloud Vis
km
Sea
Height
m
Swell
Dir
 
Speed
knots
Gust
knots
hPa Trend Height
m
Period
s
Dir
28/11:30pm 14.5 NNW 10 13 - - - - - - - - - -
28/11:00pm 14.6 NNW 10 13 - - - - - - - - - -
28/10:30pm 15.3 NW 6 11 - - - - - - - - - -
28/10:00pm 15.4 W 7 9 - - - - - - - - - -
28/09:30pm 15.8 NW 8 11 - - - - - - - - - -
28/09:00pm 14.6 NW 3 7 - - - - - - - - - -
28/08:30pm 15.5 NNW 2 5 - - - - - - - - - -
28/08:00pm 16.0 NNW 7 8 - - - - - - - - - -
28/07:30pm 16.3 NNW 7 8 - - - - - - - - - -
28/07:00pm 16.3 NNW 6 7 - - - - - - - - - -
28/06:30pm 16.6 NNW 6 6 - - - - - - - - - -
28/06:00pm 16.5 NNW 6 6 - - - - - - - - - -
28/05:30pm 16.5 NW 6 6 - - - - - - - - - -
28/05:00pm 15.9 CALM 0 0 - - - - - - - - - -
28/04:30pm 16.8 W 3 4 - - - - - - - - - -
28/04:00pm 17.2 W 5 7 - - - - - - - - - -
28/03:30pm 17.5 W 9 11 - - - - - - - - - -
28/03:00pm 17.4 W 9 11 - - - - - - - - - -
28/02:30pm 17.2 W 12 16 - - - - - - - - - -
28/02:00pm 17.2 W 11 16 - - - - - - - - - -
28/01:30pm 16.9 W 15 20 - - - - - - - - - -
28/01:00pm 16.8 W 17 23 - - - - - - - - - -
28/12:30pm 16.4 WSW 16 24 - - - - - - - - - -
28/12:00pm 16.0 W 19 29 - - - - - - - - - -
28/11:30am 15.8 WSW 16 26 - - - - - - - - - -
28/11:29am 15.7 WSW 15 26 - - - - - - - - - -
28/11:00am 15.5 W 13 19 - - - - - - - - - -
28/10:30am 15.0 W 15 20 - - - - - - - - - -
28/10:00am 14.7 W 14 18 - - - - - - - - - -
28/09:30am 14.3 W 13 18 - - - - - - - - - -

Other Formats:

Comma delimited format used in spreadsheet applications
http://www.bom.gov.au/fwo/IDN60701/IDN60701.95766.axf

JavaScript Object Notation format (JSON) in row-major order
http://www.bom.gov.au/fwo/IDN60701/IDN60701.95766.json